LTBALTBU

Guest
Details From LTBA - Istanbul Ataturk
To LTBU - Corlu
Flight Number -
Tags Routegen Generated
Created
Modified
Stats Distance 46 nm / 84 km
Max Altitude 100 ft / 30 m
Waypoints 5
Social Downloads 11
Likes 0
Share

Download

Looking for another format? Having issues loading an existing format? Contact us
Advertisement - Login to hide

Notes

Departing runway 35 LTBA. Arriving runway 4 LTBU.

Route

LTBA +41.07_+028.80 +41.13_+028.40 +41.19_+028.01 LTBU

ID Type Via Altitude (ft/m) Position (lat/lon) Dist (leg/tot) Name
O LTBA APT - 0 / 0 40.99636 / 28.80603 - / 0 nm
+41.07_+028.80 LATLON - 100 / 30 41.06870 / 28.80350 4 / 4 nm
+41.13_+028.40 LATLON - 100 / 30 41.13144 / 28.40455 18 / 22 nm
+41.19_+028.01 LATLON - 100 / 30 41.19418 / 28.00560 18 / 41 nm
O LTBU APT - 0 / 0 41.14708 / 27.93261 4 / 45 nm

Altitude Profile

Advertisement - Login to hide

LTBA

Details ICAO LTBA (ISL)
Name Istanbul Ataturk
Region Turkey
Timezone Europe/Istanbul (UTC+3.0)
Stats Elevation 163 ft / 50 m (AMSL)
Location 40.976100° 28.814200°
Runways 1
Magnetic Variation 5.805° E

METAR

LTBA 240920Z 25009KT 210V280 9999 FEW040 SCT200 19/09 Q1019 NOSIG RMK RWY23 24009KT 210V270

Decode

TAF

TAF LTBA 240440Z 2406/2512 VRB02KT CAVOK

Decode

Departure Runways

ID Width Length Bearing (true/mag) Surface Threshold Overrun Markings Lighting
05 197 ft / 60 m 8,513 ft / 2,595 m 58.45° / 52.64° ASPHALT 492 ft / 150 m 207 ft / 63 m PREC-APP CENTERLINE EDGE THRESHOLD ALSF-II TDZ REIL-OMNI
23 197 ft / 60 m 8,513 ft / 2,595 m 238.47° / 232.66° ASPHALT 0 ft / 0 m 197 ft / 60 m PREC-APP CENTERLINE EDGE THRESHOLD ALSF-II TDZ REIL-OMNI

LTBU

Details ICAO LTBU (TEQ)
Name CORLU
Region Turkey
Timezone Europe/Istanbul (UTC+3.0)
Stats Elevation 574 ft / 175 m (AMSL)
Location 41.138300° 27.918900°
Runways 1
Magnetic Variation 5.725° E

METAR

LTBU 240920Z VRB06KT CAVOK 20/04 Q1018 RMK RWY22 23006KT 180V280

Decode

TAF

TAF LTBU 240440Z 2406/2506 34008KT 9999 FEW035 BECMG 2407/2411 21012KT CAVOK BECMG 2417/2420 27008KT BECMG 2500/2502 34010KT

Decode

Destination Runways

ID Width Length Bearing (true/mag) Surface Threshold Overrun Markings Lighting
05 148 ft / 45 m 9,899 ft / 3,017 m 49.36° / 43.63° CONCRETE 0 ft / 0 m 458 ft / 140 m PREC-APP EDGE THRESHOLD SALS
23 148 ft / 45 m 9,899 ft / 3,017 m 229.37° / 223.65° CONCRETE 0 ft / 0 m 495 ft / 151 m APP EDGE THRESHOLD

Approach Navaids

Runway Type Ident Frequency Range Bearing (true/mag) Slope Elevation
05 GS ICRL 110.50 MHz 10 nm / 19 km 49.73° / 44.00 ° 3.00° 574 ft / 175 m (AMSL)
05 LOC-ILS ICRL 110.50 MHz 18 nm / 33 km 49.29° / 43.57 ° - 574 ft / 175 m (AMSL)
05 MM MM - - 49.36° / 43.64 ° - 574 ft / 175 m (AMSL)
05 OM OM - - 49.36° / 43.64 ° - 574 ft / 175 m (AMSL)

Popular Alternatives